»·PEaware :: SKW5294 KDEN-KCPR

SKW5294 :: KDEN-KCPR

FLIGHT INFORMATION

Flight Status: Arrived
Operator:
SkyWest Airlines
More flights by this operator :: More flights under this callsign
Pilot: Gabriel S. (32862)
Aircraft: EMBRAER EMB-170/175
(E170)
More flights by this aircraft type
Origin: KDEN Denver Intl
United States
Destination: KCPR Natrona Co Intl
United States
More flights between these airports :: More routes between these airports
Route: XXWNG1 XXWNG DDY
File this flight plan on PilotEdge
Remarks: RMK / SIMBRIEF
Altitude:
(Current/Filed)
32,000ft
Speed:
(Current/Filed)
403kts
Departed: 02-Jan-21 09:47 AM
Arrived: 02-Jan-21 10:32 AM
Distance/Time
Traveled:
200nm/0:45
Distance/Time
To Go:
Arrived

Flight Plot

Page will automatically refresh every two minutes.

Flight plan parsing failed; only flown route is shown


Map Options




Map Legend


Flown Route
Filed Route
Departure Airport
Arrival Airport
Navaid (VOR, NDB)
Fix

Horizontal Profiles

Position Reports

Time Latitude Longitude Heading Altitude Ground
Speed
02-Jan-21 09:25 39.857978 -104.668687 0 5376ft 0kts
02-Jan-21 09:26 39.857978 -104.668687 0 5376ft 0kts
02-Jan-21 09:27 39.857978 -104.668687 0 5376ft 0kts
02-Jan-21 09:28 39.857978 -104.668687 0 5376ft 0kts
02-Jan-21 09:29 39.857978 -104.668687 0 5376ft 0kts
02-Jan-21 09:30 39.857978 -104.668687 0 5376ft 0kts
02-Jan-21 09:31 39.857978 -104.668687 0 5376ft 0kts
02-Jan-21 09:32 39.857978 -104.668687 0 5376ft 0kts
02-Jan-21 09:33 39.857978 -104.668687 0 5376ft 0kts
02-Jan-21 09:34 39.857978 -104.668687 0 5376ft 0kts
02-Jan-21 09:35 39.857983 -104.668687 0 5377ft 0kts
02-Jan-21 09:36 39.857498 -104.668697 0 5377ft 2kts
02-Jan-21 09:37 39.857383 -104.668700 0 5376ft 0kts
02-Jan-21 09:38 39.857383 -104.668700 0 5376ft 0kts
02-Jan-21 09:39 39.857383 -104.668700 0 5376ft 0kts
02-Jan-21 09:40 39.857383 -104.668700 0 5376ft 0kts
02-Jan-21 09:41 39.857070 -104.668251 145 5376ft 10kts
02-Jan-21 09:42 39.856682 -104.665475 61 5377ft 11kts
02-Jan-21 09:43 39.858263 -104.662338 0 5385ft 18kts
02-Jan-21 09:44 39.861051 -104.661651 91 5383ft 0kts
02-Jan-21 09:45 39.861049 -104.660959 90 5383ft 9kts
02-Jan-21 09:46 39.849350 -104.660305 180 5393ft 137kts
02-Jan-21 09:47 39.801736 -104.660059 180 7958ft 179kts
02-Jan-21 09:48 39.741440 -104.658963 182 10307ft 245kts
02-Jan-21 09:49 39.714505 -104.738096 296 10518ft 304kts
02-Jan-21 09:50 39.779541 -104.800512 331 10004ft 282kts
02-Jan-21 09:51 39.850125 -104.848951 331 10004ft 283kts
02-Jan-21 09:52 39.920755 -104.897122 331 10003ft 283kts
02-Jan-21 09:53 39.990285 -104.946090 334 11314ft 281kts
02-Jan-21 09:54 40.053292 -104.945148 10 15910ft 213kts
02-Jan-21 09:55 40.116433 -104.916612 29 17470ft 277kts
02-Jan-21 09:56 40.185124 -104.845951 27 19132ft 338kts
02-Jan-21 09:57 40.277842 -104.826663 356 22058ft 347kts
02-Jan-21 09:58 40.377191 -104.834307 358 24625ft 363kts
02-Jan-21 09:59 40.481234 -104.838126 358 26801ft 380kts
02-Jan-21 10:00 40.590016 -104.842385 358 28772ft 395kts
02-Jan-21 10:01 40.703065 -104.847027 357 30497ft 411kts
02-Jan-21 10:02 40.817044 -104.870364 336 31935ft 424kts
02-Jan-21 10:03 40.924865 -104.951185 328 31973ft 438kts
02-Jan-21 10:04 41.029992 -105.034618 330 31990ft 440kts
02-Jan-21 10:05 41.138113 -105.116024 330 32002ft 441kts
02-Jan-21 10:06 41.246536 -105.197150 330 32004ft 442kts
02-Jan-21 10:07 41.354770 -105.279113 330 31997ft 444kts
02-Jan-21 10:08 41.463477 -105.361704 331 31986ft 446kts
02-Jan-21 10:09 41.577486 -105.428791 339 30545ft 435kts
02-Jan-21 10:10 41.690188 -105.487626 336 28753ft 440kts
02-Jan-21 10:11 41.805004 -105.550262 336 26989ft 443kts
02-Jan-21 10:13 41.916804 -105.612231 336 25195ft 416kts
02-Jan-21 10:14 42.020495 -105.670081 335 23541ft 394kts
02-Jan-21 10:15 42.121451 -105.727497 335 21971ft 383kts
02-Jan-21 10:16 42.219480 -105.781912 335 20450ft 373kts
02-Jan-21 10:17 42.315350 -105.835411 335 18959ft 364kts
02-Jan-21 10:18 42.408571 -105.887909 335 17502ft 355kts
02-Jan-21 10:19 42.499173 -105.939052 335 16103ft 342kts
02-Jan-21 10:20 42.586908 -105.988762 335 16014ft 343kts
02-Jan-21 10:21 42.671806 -106.036923 334 14776ft 323kts
02-Jan-21 10:22 42.753969 -106.083730 334 13309ft 309kts
02-Jan-21 10:23 42.829863 -106.127037 334 11903ft 275kts
02-Jan-21 10:24 42.899041 -106.166696 334 10651ft 263kts
02-Jan-21 10:25 42.967151 -106.204829 335 9439ft 257kts
02-Jan-21 10:25 43.019648 -106.235742 313 8440ft 233kts
02-Jan-21 10:27 43.011606 -106.318917 224 7930ft 189kts
02-Jan-21 10:28 42.978906 -106.362142 226 6909ft 139kts
02-Jan-21 10:29 42.953225 -106.396263 222 6252ft 129kts
02-Jan-21 10:29 42.931948 -106.424427 222 5739ft 126kts
02-Jan-21 10:30 42.908255 -106.455573 223 5334ft 59kts
02-Jan-21 10:32 42.904958 -106.457101 222 5331ft 7kts
02-Jan-21 10:32 42.902955 -106.459714 224 5327ft 16kts
02-Jan-21 10:33 42.899723 -106.463945 222 5327ft 20kts
02-Jan-21 10:34 42.897615 -106.465120 151 5326ft 0kts
02-Jan-21 10:35 42.897615 -106.465120 151 5326ft 0kts
02-Jan-21 10:36 42.897615 -106.465120 151 5326ft 0kts
02-Jan-21 10:37 42.897615 -106.465120 151 5326ft 0kts
02-Jan-21 10:38 42.897615 -106.465120 151 5326ft 0kts
02-Jan-21 10:39 42.897615 -106.465120 151 5326ft 0kts
02-Jan-21 10:40 42.897615 -106.465120 151 5326ft 0kts

Navigation Log

Ident Type
Flight plan parsing failed, navigation log unavailable